Impacts TAF Board INFO
FOR SITUATIONAL AWARENESS. NOT TO BE USED FOR FLIGHT PLANNING PURPOSES.
IDs:

KATL - Atlanta/Hartsfield-J, GA, US

Issued at 0217 UTC 18 Dec 2017
Updated at 0306 UTC 18 Dec 2017
Potential Impact None Slight Moderate High
Time<<19/04Z 19/05Z 19/06Z 19/07Z 19/08Z 19/09Z 19/10Z 19/11Z 19/12Z 19/13Z 19/14Z 19/15Z 19/16Z
Type PRVL PRVL
VIS >6 >6
CIG 100 100
Cover OVC OVC
FltCat VFR VFR
WX -- --
WDir 280 280
WSpd 5 5
WGst -- --

Raw TAF
KATL 180217Z 1802/1906 08005KT 6SM -DZ BR VCSH BKN020
  FM180400 08004KT 4SM -DZ BR BKN008
  FM181200 03003KT 1SM -DZ BR OVC004
  FM181600 28004KT 6SM BR OVC008
  FM181900 28006KT P6SM OVC015
  FM182300 28005KT P6SM FEW020 OVC100


METAR Board
Radar Display
Forecast Discussion

FOR SITUATIONAL AWARENESS. NOT TO BE USED FOR FLIGHT PLANNING PURPOSES.